sensor_id;sensor_type;location;lat;lon;timestamp;temperature;humidity
3942;DHT22;1985;48.592;8.850;2023-02-15T00:01:37;2.90;99.90
3942;DHT22;1985;48.592;8.850;2023-02-15T00:04:03;2.70;99.90
3942;DHT22;1985;48.592;8.850;2023-02-15T00:06:29;2.70;99.90
3942;DHT22;1985;48.592;8.850;2023-02-15T00:08:55;2.70;99.90
3942;DHT22;1985;48.592;8.850;2023-02-15T00:11:21;2.70;99.90
3942;DHT22;1985;48.592;8.850;2023-02-15T00:14:14;2.60;99.90
3942;DHT22;1985;48.592;8.850;2023-02-15T00:16:41;2.60;99.90
3942;DHT22;1985;48.592;8.850;2023-02-15T00:19:09;2.70;99.90
3942;DHT22;1985;48.592;8.850;2023-02-15T00:21:35;2.70;99.90
3942;DHT22;1985;48.592;8.850;2023-02-15T00:24:04;2.60;99.90
3942;DHT22;1985;48.592;8.850;2023-02-15T00:26:30;2.60;99.90
3942;DHT22;1985;48.592;8.850;2023-02-15T00:28:56;2.70;99.90
3942;DHT22;1985;48.592;8.850;2023-02-15T00:31:24;2.60;99.90
3942;DHT22;1985;48.592;8.850;2023-02-15T00:33:50;2.60;99.90
3942;DHT22;1985;48.592;8.850;2023-02-15T00:36:16;2.60;99.90
3942;DHT22;1985;48.592;8.850;2023-02-15T00:38:41;2.60;99.90
3942;DHT22;1985;48.592;8.850;2023-02-15T00:41:08;2.60;99.90
3942;DHT22;1985;48.592;8.850;2023-02-15T00:43:34;2.60;99.90
3942;DHT22;1985;48.592;8.850;2023-02-15T00:46:01;2.60;99.90
3942;DHT22;1985;48.592;8.850;2023-02-15T00:48:27;2.60;99.90
3942;DHT22;1985;48.592;8.850;2023-02-15T00:50:55;2.60;99.90
3942;DHT22;1985;48.592;8.850;2023-02-15T00:53:21;2.50;99.90
3942;DHT22;1985;48.592;8.850;2023-02-15T00:55:47;2.50;99.90
3942;DHT22;1985;48.592;8.850;2023-02-15T00:58:13;2.40;99.90
3942;DHT22;1985;48.592;8.850;2023-02-15T01:00:40;2.40;99.90
3942;DHT22;1985;48.592;8.850;2023-02-15T01:03:06;2.40;99.90
3942;DHT22;1985;48.592;8.850;2023-02-15T01:05:32;2.40;99.90
3942;DHT22;1985;48.592;8.850;2023-02-15T01:07:58;2.40;99.90
3942;DHT22;1985;48.592;8.850;2023-02-15T01:10:25;2.40;99.90
3942;DHT22;1985;48.592;8.850;2023-02-15T01:12:51;2.20;99.90
3942;DHT22;1985;48.592;8.850;2023-02-15T01:15:17;2.20;99.90
3942;DHT22;1985;48.592;8.850;2023-02-15T01:17:43;2.20;99.90
3942;DHT22;1985;48.592;8.850;2023-02-15T01:20:11;2.10;99.90
3942;DHT22;1985;48.592;8.850;2023-02-15T01:22:37;2.10;99.90
3942;DHT22;1985;48.592;8.850;2023-02-15T01:25:03;2.00;99.90
3942;DHT22;1985;48.592;8.850;2023-02-15T01:27:28;1.90;99.90
3942;DHT22;1985;48.592;8.850;2023-02-15T01:29:56;2.00;99.90
3942;DHT22;1985;48.592;8.850;2023-02-15T01:32:22;1.90;99.90
3942;DHT22;1985;48.592;8.850;2023-02-15T01:34:47;1.90;99.90
3942;DHT22;1985;48.592;8.850;2023-02-15T01:37:13;2.00;99.90
3942;DHT22;1985;48.592;8.850;2023-02-15T01:39:38;1.90;99.90
3942;DHT22;1985;48.592;8.850;2023-02-15T01:42:04;2.00;99.90
3942;DHT22;1985;48.592;8.850;2023-02-15T01:44:50;2.00;99.90
3942;DHT22;1985;48.592;8.850;2023-02-15T01:47:23;2.00;99.90
3942;DHT22;1985;48.592;8.850;2023-02-15T01:49:53;1.90;99.90
3942;DHT22;1985;48.592;8.850;2023-02-15T01:52:20;2.00;99.90
3942;DHT22;1985;48.592;8.850;2023-02-15T01:54:47;2.00;99.90
3942;DHT22;1985;48.592;8.850;2023-02-15T01:57:17;2.00;99.90
3942;DHT22;1985;48.592;8.850;2023-02-15T01:59:47;2.00;99.90
3942;DHT22;1985;48.592;8.850;2023-02-15T02:02:16;2.00;99.90
3942;DHT22;1985;48.592;8.850;2023-02-15T02:04:51;1.90;99.90
3942;DHT22;1985;48.592;8.850;2023-02-15T02:07:20;1.80;99.90
3942;DHT22;1985;48.592;8.850;2023-02-15T02:09:47;1.90;99.90
3942;DHT22;1985;48.592;8.850;2023-02-15T02:12:14;1.80;99.90
3942;DHT22;1985;48.592;8.850;2023-02-15T02:14:40;1.80;99.90
3942;DHT22;1985;48.592;8.850;2023-02-15T02:28:42;1.80;99.90
3942;DHT22;1985;48.592;8.850;2023-02-15T02:38:28;1.70;99.90
3942;DHT22;1985;48.592;8.850;2023-02-15T02:46:30;1.50;99.90
3942;DHT22;1985;48.592;8.850;2023-02-15T02:48:57;1.50;99.90
3942;DHT22;1985;48.592;8.850;2023-02-15T02:51:22;1.50;99.90
3942;DHT22;1985;48.592;8.850;2023-02-15T02:53:52;1.50;99.90
3942;DHT22;1985;48.592;8.850;2023-02-15T02:59:00;1.50;99.90
3942;DHT22;1985;48.592;8.850;2023-02-15T03:04:01;1.50;99.90
3942;DHT22;1985;48.592;8.850;2023-02-15T03:06:42;1.40;99.90
3942;DHT22;1985;48.592;8.850;2023-02-15T03:09:34;1.40;99.90
3942;DHT22;1985;48.592;8.850;2023-02-15T03:12:08;1.40;99.90
3942;DHT22;1985;48.592;8.850;2023-02-15T03:14:35;1.40;99.90
3942;DHT22;1985;48.592;8.850;2023-02-15T03:17:02;1.40;99.90
3942;DHT22;1985;48.592;8.850;2023-02-15T03:19:32;1.30;99.90
3942;DHT22;1985;48.592;8.850;2023-02-15T03:22:11;1.30;99.90
3942;DHT22;1985;48.592;8.850;2023-02-15T03:24:53;1.20;99.90
3942;DHT22;1985;48.592;8.850;2023-02-15T03:27:24;1.20;99.90
3942;DHT22;1985;48.592;8.850;2023-02-15T03:29:56;1.20;99.90
3942;DHT22;1985;48.592;8.850;2023-02-15T03:32:25;1.30;99.90
3942;DHT22;1985;48.592;8.850;2023-02-15T03:34:52;1.30;99.90
3942;DHT22;1985;48.592;8.850;2023-02-15T03:37:36;1.30;99.90
3942;DHT22;1985;48.592;8.850;2023-02-15T03:40:11;1.20;99.90
3942;DHT22;1985;48.592;8.850;2023-02-15T03:43:18;1.10;99.90
3942;DHT22;1985;48.592;8.850;2023-02-15T03:45:48;1.10;99.90
3942;DHT22;1985;48.592;8.850;2023-02-15T03:48:28;1.20;99.90
3942;DHT22;1985;48.592;8.850;2023-02-15T03:50:58;1.20;99.90
3942;DHT22;1985;48.592;8.850;2023-02-15T03:53:46;1.30;99.90
3942;DHT22;1985;48.592;8.850;2023-02-15T03:56:13;1.20;99.90
3942;DHT22;1985;48.592;8.850;2023-02-15T03:58:38;1.10;99.90
3942;DHT22;1985;48.592;8.850;2023-02-15T04:01:25;1.20;99.90
3942;DHT22;1985;48.592;8.850;2023-02-15T04:04:19;1.10;99.90
3942;DHT22;1985;48.592;8.850;2023-02-15T04:06:45;1.10;99.90
3942;DHT22;1985;48.592;8.850;2023-02-15T04:09:12;1.10;99.90
3942;DHT22;1985;48.592;8.850;2023-02-15T04:11:56;1.10;99.90
3942;DHT22;1985;48.592;8.850;2023-02-15T04:14:22;1.10;99.90
3942;DHT22;1985;48.592;8.850;2023-02-15T04:17:07;1.10;99.90
3942;DHT22;1985;48.592;8.850;2023-02-15T04:19:33;1.10;99.90
3942;DHT22;1985;48.592;8.850;2023-02-15T04:22:18;1.00;99.90
3942;DHT22;1985;48.592;8.850;2023-02-15T04:25:02;0.90;99.90
3942;DHT22;1985;48.592;8.850;2023-02-15T04:27:38;0.90;99.90
3942;DHT22;1985;48.592;8.850;2023-02-15T04:30:05;0.90;99.90
3942;DHT22;1985;48.592;8.850;2023-02-15T04:32:31;0.90;99.90
3942;DHT22;1985;48.592;8.850;2023-02-15T04:34:56;1.00;99.90
3942;DHT22;1985;48.592;8.850;2023-02-15T04:37:22;1.00;99.90
3942;DHT22;1985;48.592;8.850;2023-02-15T04:39:47;0.90;99.90
3942;DHT22;1985;48.592;8.850;2023-02-15T04:42:13;0.80;99.90
3942;DHT22;1985;48.592;8.850;2023-02-15T04:44:38;0.80;99.90
3942;DHT22;1985;48.592;8.850;2023-02-15T04:47:04;0.80;99.90
3942;DHT22;1985;48.592;8.850;2023-02-15T04:49:30;0.90;99.90
3942;DHT22;1985;48.592;8.850;2023-02-15T04:51:55;0.70;99.90
3942;DHT22;1985;48.592;8.850;2023-02-15T04:54:21;0.60;99.90
3942;DHT22;1985;48.592;8.850;2023-02-15T04:56:46;0.60;99.90
3942;DHT22;1985;48.592;8.850;2023-02-15T04:59:12;0.60;99.90
3942;DHT22;1985;48.592;8.850;2023-02-15T05:01:38;0.60;99.90
3942;DHT22;1985;48.592;8.850;2023-02-15T05:04:04;0.60;99.90
3942;DHT22;1985;48.592;8.850;2023-02-15T05:06:29;0.70;99.90
3942;DHT22;1985;48.592;8.850;2023-02-15T05:08:55;0.80;99.90
3942;DHT22;1985;48.592;8.850;2023-02-15T05:11:21;0.70;99.90
3942;DHT22;1985;48.592;8.850;2023-02-15T05:13:46;0.70;99.90
3942;DHT22;1985;48.592;8.850;2023-02-15T05:16:12;0.70;99.90
3942;DHT22;1985;48.592;8.850;2023-02-15T05:18:38;0.70;99.90
3942;DHT22;1985;48.592;8.850;2023-02-15T05:21:03;0.70;99.90
3942;DHT22;1985;48.592;8.850;2023-02-15T05:23:29;0.60;99.90
3942;DHT22;1985;48.592;8.850;2023-02-15T05:25:55;0.60;99.90
3942;DHT22;1985;48.592;8.850;2023-02-15T05:28:39;0.60;99.90
3942;DHT22;1985;48.592;8.850;2023-02-15T05:31:12;0.70;99.90
3942;DHT22;1985;48.592;8.850;2023-02-15T05:33:38;0.80;99.90
3942;DHT22;1985;48.592;8.850;2023-02-15T05:36:05;0.80;99.90
3942;DHT22;1985;48.592;8.850;2023-02-15T05:38:31;0.70;99.90
3942;DHT22;1985;48.592;8.850;2023-02-15T05:40:57;0.60;99.90
3942;DHT22;1985;48.592;8.850;2023-02-15T05:43:23;0.50;99.90
3942;DHT22;1985;48.592;8.850;2023-02-15T05:45:50;0.50;99.90
3942;DHT22;1985;48.592;8.850;2023-02-15T05:48:17;0.50;99.90
3942;DHT22;1985;48.592;8.850;2023-02-15T05:50:44;0.60;99.90
3942;DHT22;1985;48.592;8.850;2023-02-15T05:53:09;0.60;99.90
3942;DHT22;1985;48.592;8.850;2023-02-15T05:55:38;0.60;99.90
3942;DHT22;1985;48.592;8.850;2023-02-15T05:58:04;0.50;99.90
3942;DHT22;1985;48.592;8.850;2023-02-15T06:00:29;0.40;99.90
3942;DHT22;1985;48.592;8.850;2023-02-15T06:02:55;0.40;99.90
3942;DHT22;1985;48.592;8.850;2023-02-15T06:05:21;0.50;99.90
3942;DHT22;1985;48.592;8.850;2023-02-15T06:07:47;0.50;99.90
3942;DHT22;1985;48.592;8.850;2023-02-15T06:10:12;0.50;99.90
3942;DHT22;1985;48.592;8.850;2023-02-15T06:12:38;0.50;99.90
3942;DHT22;1985;48.592;8.850;2023-02-15T06:15:04;0.40;99.90
3942;DHT22;1985;48.592;8.850;2023-02-15T06:17:30;0.40;99.90
3942;DHT22;1985;48.592;8.850;2023-02-15T06:19:55;0.30;99.90
3942;DHT22;1985;48.592;8.850;2023-02-15T06:22:21;0.30;99.90
3942;DHT22;1985;48.592;8.850;2023-02-15T06:24:47;0.40;99.90
3942;DHT22;1985;48.592;8.850;2023-02-15T06:27:13;0.40;99.90
3942;DHT22;1985;48.592;8.850;2023-02-15T06:29:38;0.40;99.90
3942;DHT22;1985;48.592;8.850;2023-02-15T06:32:04;0.40;99.90
3942;DHT22;1985;48.592;8.850;2023-02-15T06:34:30;0.40;99.90
3942;DHT22;1985;48.592;8.850;2023-02-15T06:36:56;0.40;99.90
3942;DHT22;1985;48.592;8.850;2023-02-15T06:39:21;0.40;99.90
3942;DHT22;1985;48.592;8.850;2023-02-15T06:41:47;0.40;99.90
3942;DHT22;1985;48.592;8.850;2023-02-15T06:44:13;0.30;99.90
3942;DHT22;1985;48.592;8.850;2023-02-15T06:46:39;0.30;99.90
3942;DHT22;1985;48.592;8.850;2023-02-15T06:49:04;0.40;99.90
3942;DHT22;1985;48.592;8.850;2023-02-15T06:51:30;0.50;99.90
3942;DHT22;1985;48.592;8.850;2023-02-15T06:53:56;0.60;99.90
3942;DHT22;1985;48.592;8.850;2023-02-15T06:56:21;0.60;99.90
3942;DHT22;1985;48.592;8.850;2023-02-15T06:58:47;0.50;99.90
3942;DHT22;1985;48.592;8.850;2023-02-15T07:01:15;0.60;99.90
3942;DHT22;1985;48.592;8.850;2023-02-15T07:03:41;0.80;99.90
3942;DHT22;1985;48.592;8.850;2023-02-15T07:06:07;0.70;99.90
3942;DHT22;1985;48.592;8.850;2023-02-15T07:08:35;0.80;99.90
3942;DHT22;1985;48.592;8.850;2023-02-15T07:11:01;0.90;99.90
3942;DHT22;1985;48.592;8.850;2023-02-15T07:13:46;1.00;99.90
3942;DHT22;1985;48.592;8.850;2023-02-15T07:16:12;1.10;99.90
3942;DHT22;1985;48.592;8.850;2023-02-15T07:18:38;1.20;99.90
3942;DHT22;1985;48.592;8.850;2023-02-15T07:21:05;1.30;99.90
3942;DHT22;1985;48.592;8.850;2023-02-15T07:23:36;1.40;99.90
3942;DHT22;1985;48.592;8.850;2023-02-15T07:26:03;1.50;99.90
3942;DHT22;1985;48.592;8.850;2023-02-15T07:28:29;1.50;99.90
3942;DHT22;1985;48.592;8.850;2023-02-15T07:30:54;1.60;99.90
3942;DHT22;1985;48.592;8.850;2023-02-15T07:33:20;1.60;99.90
3942;DHT22;1985;48.592;8.850;2023-02-15T07:38:14;1.50;99.90
3942;DHT22;1985;48.592;8.850;2023-02-15T07:40:40;1.50;99.90
3942;DHT22;1985;48.592;8.850;2023-02-15T07:43:06;1.60;99.90
3942;DHT22;1985;48.592;8.850;2023-02-15T07:45:31;1.70;99.90
3942;DHT22;1985;48.592;8.850;2023-02-15T07:47:57;1.80;99.90
3942;DHT22;1985;48.592;8.850;2023-02-15T07:50:23;1.90;99.90
3942;DHT22;1985;48.592;8.850;2023-02-15T07:52:48;2.00;99.90
3942;DHT22;1985;48.592;8.850;2023-02-15T07:55:14;1.90;99.90
3942;DHT22;1985;48.592;8.850;2023-02-15T07:57:44;1.80;99.90
3942;DHT22;1985;48.592;8.850;2023-02-15T08:00:11;1.80;99.90
3942;DHT22;1985;48.592;8.850;2023-02-15T08:02:38;1.90;99.90
3942;DHT22;1985;48.592;8.850;2023-02-15T08:05:04;2.00;99.90
3942;DHT22;1985;48.592;8.850;2023-02-15T08:07:30;2.00;99.90
3942;DHT22;1985;48.592;8.850;2023-02-15T08:09:56;2.00;99.90
3942;DHT22;1985;48.592;8.850;2023-02-15T08:12:21;2.20;99.90
3942;DHT22;1985;48.592;8.850;2023-02-15T08:14:47;2.40;99.90
3942;DHT22;1985;48.592;8.850;2023-02-15T08:17:12;2.60;99.90
3942;DHT22;1985;48.592;8.850;2023-02-15T08:19:38;2.60;99.90
3942;DHT22;1985;48.592;8.850;2023-02-15T08:22:10;2.70;99.90
3942;DHT22;1985;48.592;8.850;2023-02-15T08:24:37;2.90;99.90
3942;DHT22;1985;48.592;8.850;2023-02-15T08:27:03;3.00;99.90
3942;DHT22;1985;48.592;8.850;2023-02-15T08:29:30;3.10;99.90
3942;DHT22;1985;48.592;8.850;2023-02-15T08:31:59;3.30;99.90
3942;DHT22;1985;48.592;8.850;2023-02-15T08:34:28;3.40;99.90
3942;DHT22;1985;48.592;8.850;2023-02-15T08:36:54;3.30;99.90
3942;DHT22;1985;48.592;8.850;2023-02-15T08:39:20;3.50;99.90
3942;DHT22;1985;48.592;8.850;2023-02-15T08:41:47;3.20;99.90
3942;DHT22;1985;48.592;8.850;2023-02-15T08:44:14;3.30;99.90
3942;DHT22;1985;48.592;8.850;2023-02-15T08:46:42;3.50;99.90
3942;DHT22;1985;48.592;8.850;2023-02-15T08:49:09;3.80;99.90
3942;DHT22;1985;48.592;8.850;2023-02-15T08:51:37;4.10;99.90
3942;DHT22;1985;48.592;8.850;2023-02-15T08:54:08;4.20;99.90
3942;DHT22;1985;48.592;8.850;2023-02-15T08:56:37;4.40;99.90
3942;DHT22;1985;48.592;8.850;2023-02-15T08:59:03;4.50;99.90
3942;DHT22;1985;48.592;8.850;2023-02-15T09:01:32;4.70;99.90
3942;DHT22;1985;48.592;8.850;2023-02-15T09:04:04;4.80;99.90
3942;DHT22;1985;48.592;8.850;2023-02-15T09:06:30;4.80;99.90
3942;DHT22;1985;48.592;8.850;2023-02-15T09:08:57;4.90;99.90
3942;DHT22;1985;48.592;8.850;2023-02-15T09:11:25;5.10;99.90
3942;DHT22;1985;48.592;8.850;2023-02-15T09:14:00;5.20;99.90
3942;DHT22;1985;48.592;8.850;2023-02-15T09:16:28;5.20;99.90
3942;DHT22;1985;48.592;8.850;2023-02-15T09:18:54;5.20;99.90
3942;DHT22;1985;48.592;8.850;2023-02-15T09:21:23;5.40;99.90
3942;DHT22;1985;48.592;8.850;2023-02-15T09:23:51;5.50;99.90
3942;DHT22;1985;48.592;8.850;2023-02-15T09:26:19;5.50;99.90
3942;DHT22;1985;48.592;8.850;2023-02-15T09:28:46;5.60;99.90
3942;DHT22;1985;48.592;8.850;2023-02-15T09:31:16;5.70;99.90
3942;DHT22;1985;48.592;8.850;2023-02-15T09:33:44;5.80;99.90
3942;DHT22;1985;48.592;8.850;2023-02-15T09:38:46;6.10;99.90
3942;DHT22;1985;48.592;8.850;2023-02-15T09:57:37;7.60;97.50
3942;DHT22;1985;48.592;8.850;2023-02-15T10:00:20;7.80;97.10
3942;DHT22;1985;48.592;8.850;2023-02-15T10:05:50;8.20;96.10
3942;DHT22;1985;48.592;8.850;2023-02-15T10:11:18;8.40;94.90
3942;DHT22;1985;48.592;8.850;2023-02-15T10:14:32;8.60;95.50
3942;DHT22;1985;48.592;8.850;2023-02-15T10:17:26;8.90;95.30
3942;DHT22;1985;48.592;8.850;2023-02-15T10:27:49;8.60;93.50
3942;DHT22;1985;48.592;8.850;2023-02-15T10:38:07;12.70;93.00
3942;DHT22;1985;48.592;8.850;2023-02-15T10:49:00;25.20;46.80
3942;DHT22;1985;48.592;8.850;2023-02-15T10:51:55;26.80;41.90
3942;DHT22;1985;48.592;8.850;2023-02-15T11:00:05;29.90;34.20
3942;DHT22;1985;48.592;8.850;2023-02-15T11:05:45;31.60;32.30
3942;DHT22;1985;48.592;8.850;2023-02-15T11:08:21;31.80;30.70
3942;DHT22;1985;48.592;8.850;2023-02-15T11:11:01;31.40;30.00
3942;DHT22;1985;48.592;8.850;2023-02-15T11:13:31;31.80;30.60
3942;DHT22;1985;48.592;8.850;2023-02-15T11:16:16;32.60;29.50
3942;DHT22;1985;48.592;8.850;2023-02-15T11:18:48;31.40;29.30
3942;DHT22;1985;48.592;8.850;2023-02-15T11:21:22;30.10;29.90
3942;DHT22;1985;48.592;8.850;2023-02-15T11:23:49;29.50;30.50
3942;DHT22;1985;48.592;8.850;2023-02-15T11:28:58;30.10;30.00
3942;DHT22;1985;48.592;8.850;2023-02-15T11:31:40;29.30;30.30
3942;DHT22;1985;48.592;8.850;2023-02-15T11:34:19;28.70;32.00
3942;DHT22;1985;48.592;8.850;2023-02-15T11:36:47;29.30;31.90
3942;DHT22;1985;48.592;8.850;2023-02-15T11:39:17;30.00;30.00
3942;DHT22;1985;48.592;8.850;2023-02-15T11:41:49;30.60;30.10
3942;DHT22;1985;48.592;8.850;2023-02-15T11:46:42;32.30;29.20
3942;DHT22;1985;48.592;8.850;2023-02-15T11:49:30;32.60;28.40
3942;DHT22;1985;48.592;8.850;2023-02-15T11:51:57;33.00;28.20
3942;DHT22;1985;48.592;8.850;2023-02-15T11:54:29;32.60;27.40
3942;DHT22;1985;48.592;8.850;2023-02-15T11:57:31;31.70;28.20
3942;DHT22;1985;48.592;8.850;2023-02-15T12:00:05;31.90;28.40
3942;DHT22;1985;48.592;8.850;2023-02-15T12:02:33;31.20;28.50
3942;DHT22;1985;48.592;8.850;2023-02-15T12:05:03;31.50;28.90
3942;DHT22;1985;48.592;8.850;2023-02-15T12:07:41;31.90;28.60
3942;DHT22;1985;48.592;8.850;2023-02-15T12:10:26;31.80;28.50
3942;DHT22;1985;48.592;8.850;2023-02-15T12:15:36;33.60;28.30
3942;DHT22;1985;48.592;8.850;2023-02-15T12:18:01;35.00;27.60
3942;DHT22;1985;48.592;8.850;2023-02-15T12:20:34;35.60;26.80
3942;DHT22;1985;48.592;8.850;2023-02-15T12:23:11;35.90;26.40
3942;DHT22;1985;48.592;8.850;2023-02-15T12:25:39;35.70;26.20
3942;DHT22;1985;48.592;8.850;2023-02-15T12:30:53;35.60;26.60
3942;DHT22;1985;48.592;8.850;2023-02-15T12:33:39;36.30;26.60
3942;DHT22;1985;48.592;8.850;2023-02-15T12:36:18;36.90;25.80
3942;DHT22;1985;48.592;8.850;2023-02-15T12:39:02;36.70;25.50
3942;DHT22;1985;48.592;8.850;2023-02-15T12:41:29;36.10;25.10
3942;DHT22;1985;48.592;8.850;2023-02-15T12:44:17;35.40;24.80
3942;DHT22;1985;48.592;8.850;2023-02-15T12:49:25;34.50;25.30
3942;DHT22;1985;48.592;8.850;2023-02-15T12:51:57;34.10;25.30
3942;DHT22;1985;48.592;8.850;2023-02-15T12:54:35;34.00;26.20
3942;DHT22;1985;48.592;8.850;2023-02-15T12:59:52;32.60;25.50
3942;DHT22;1985;48.592;8.850;2023-02-15T13:08:08;33.40;25.30
3942;DHT22;1985;48.592;8.850;2023-02-15T13:10:39;35.20;25.00
3942;DHT22;1985;48.592;8.850;2023-02-15T13:13:18;36.00;23.90
3942;DHT22;1985;48.592;8.850;2023-02-15T13:15:49;35.50;23.70
3942;DHT22;1985;48.592;8.850;2023-02-15T13:18:37;35.00;23.50
3942;DHT22;1985;48.592;8.850;2023-02-15T13:23:38;34.90;23.90
3942;DHT22;1985;48.592;8.850;2023-02-15T13:26:09;35.00;24.00
3942;DHT22;1985;48.592;8.850;2023-02-15T13:28:44;34.00;24.20
3942;DHT22;1985;48.592;8.850;2023-02-15T13:31:22;31.90;23.60
3942;DHT22;1985;48.592;8.850;2023-02-15T13:33:56;30.50;24.70
3942;DHT22;1985;48.592;8.850;2023-02-15T13:58:55;23.90;27.80
3942;DHT22;1985;48.592;8.850;2023-02-15T14:01:45;23.40;28.60
3942;DHT22;1985;48.592;8.850;2023-02-15T14:07:16;23.30;30.00
3942;DHT22;1985;48.592;8.850;2023-02-15T14:15:40;24.10;30.20
3942;DHT22;1985;48.592;8.850;2023-02-15T14:21:09;22.30;30.90
3942;DHT22;1985;48.592;8.850;2023-02-15T14:29:24;20.80;36.40
3942;DHT22;1985;48.592;8.850;2023-02-15T14:31:56;20.60;37.90
3942;DHT22;1985;48.592;8.850;2023-02-15T14:34:36;20.40;38.10
3942;DHT22;1985;48.592;8.850;2023-02-15T14:37:09;20.10;37.20
3942;DHT22;1985;48.592;8.850;2023-02-15T14:40:00;19.20;37.90
3942;DHT22;1985;48.592;8.850;2023-02-15T14:42:56;18.90;38.80
3942;DHT22;1985;48.592;8.850;2023-02-15T14:45:31;18.70;39.80
3942;DHT22;1985;48.592;8.850;2023-02-15T14:48:13;18.50;40.00
3942;DHT22;1985;48.592;8.850;2023-02-15T14:50:43;18.20;39.50
3942;DHT22;1985;48.592;8.850;2023-02-15T14:58:37;17.40;41.30
3942;DHT22;1985;48.592;8.850;2023-02-15T15:01:08;17.60;41.10
3942;DHT22;1985;48.592;8.850;2023-02-15T15:03:35;17.50;40.90
3942;DHT22;1985;48.592;8.850;2023-02-15T15:06:03;17.70;41.10
3942;DHT22;1985;48.592;8.850;2023-02-15T15:08:36;17.80;41.20
3942;DHT22;1985;48.592;8.850;2023-02-15T15:14:03;17.60;41.40
3942;DHT22;1985;48.592;8.850;2023-02-15T15:19:01;16.70;42.30
3942;DHT22;1985;48.592;8.850;2023-02-15T15:38:34;15.30;47.40
3942;DHT22;1985;48.592;8.850;2023-02-15T15:49:34;14.70;47.90
3942;DHT22;1985;48.592;8.850;2023-02-15T15:52:13;14.50;46.80
3942;DHT22;1985;48.592;8.850;2023-02-15T15:54:41;14.40;47.00
3942;DHT22;1985;48.592;8.850;2023-02-15T15:57:38;14.20;47.40
3942;DHT22;1985;48.592;8.850;2023-02-15T16:00:03;14.10;47.80
3942;DHT22;1985;48.592;8.850;2023-02-15T16:02:29;14.00;48.60
3942;DHT22;1985;48.592;8.850;2023-02-15T16:04:54;13.90;48.90
3942;DHT22;1985;48.592;8.850;2023-02-15T16:07:31;13.80;49.30
3942;DHT22;1985;48.592;8.850;2023-02-15T16:12:29;13.50;49.50
3942;DHT22;1985;48.592;8.850;2023-02-15T16:14:56;13.40;50.10
3942;DHT22;1985;48.592;8.850;2023-02-15T16:17:27;13.20;51.00
3942;DHT22;1985;48.592;8.850;2023-02-15T16:20:06;13.10;51.90
3942;DHT22;1985;48.592;8.850;2023-02-15T16:22:33;12.90;52.70
3942;DHT22;1985;48.592;8.850;2023-02-15T16:27:46;12.60;54.70
3942;DHT22;1985;48.592;8.850;2023-02-15T16:30:33;12.50;55.70
3942;DHT22;1985;48.592;8.850;2023-02-15T16:33:09;12.30;56.50
3942;DHT22;1985;48.592;8.850;2023-02-15T16:35:37;12.10;57.00
3942;DHT22;1985;48.592;8.850;2023-02-15T16:38:03;12.00;57.30
3942;DHT22;1985;48.592;8.850;2023-02-15T16:40:37;11.90;58.00
3942;DHT22;1985;48.592;8.850;2023-02-15T16:43:06;11.80;58.40
3942;DHT22;1985;48.592;8.850;2023-02-15T16:45:36;11.70;59.10
3942;DHT22;1985;48.592;8.850;2023-02-15T16:48:08;11.60;59.80
3942;DHT22;1985;48.592;8.850;2023-02-15T16:50:37;11.40;60.10
3942;DHT22;1985;48.592;8.850;2023-02-15T16:53:05;11.20;60.30
3942;DHT22;1985;48.592;8.850;2023-02-15T16:55:40;11.10;60.40
3942;DHT22;1985;48.592;8.850;2023-02-15T16:58:12;11.10;60.10
3942;DHT22;1985;48.592;8.850;2023-02-15T17:00:39;11.00;59.90
3942;DHT22;1985;48.592;8.850;2023-02-15T17:13:24;10.60;60.00
3942;DHT22;1985;48.592;8.850;2023-02-15T17:18:27;10.40;60.10
3942;DHT22;1985;48.592;8.850;2023-02-15T17:20:55;10.30;60.70
3942;DHT22;1985;48.592;8.850;2023-02-15T17:23:30;10.20;61.90
3942;DHT22;1985;48.592;8.850;2023-02-15T17:25:58;10.20;62.00
3942;DHT22;1985;48.592;8.850;2023-02-15T17:28:26;10.00;62.60
3942;DHT22;1985;48.592;8.850;2023-02-15T17:30:53;9.90;64.50
3942;DHT22;1985;48.592;8.850;2023-02-15T17:33:36;9.80;65.40
3942;DHT22;1985;48.592;8.850;2023-02-15T17:36:12;9.70;66.00
3942;DHT22;1985;48.592;8.850;2023-02-15T17:38:50;9.70;66.20
3942;DHT22;1985;48.592;8.850;2023-02-15T17:41:29;9.60;66.80
3942;DHT22;1985;48.592;8.850;2023-02-15T17:43:55;9.50;67.60
3942;DHT22;1985;48.592;8.850;2023-02-15T17:46:21;9.40;67.90
3942;DHT22;1985;48.592;8.850;2023-02-15T17:48:51;9.40;68.40
3942;DHT22;1985;48.592;8.850;2023-02-15T17:51:18;9.30;68.40
3942;DHT22;1985;48.592;8.850;2023-02-15T17:53:44;9.30;68.70
3942;DHT22;1985;48.592;8.850;2023-02-15T17:56:34;9.20;68.60
3942;DHT22;1985;48.592;8.850;2023-02-15T17:59:00;9.20;68.60
3942;DHT22;1985;48.592;8.850;2023-02-15T18:01:26;9.10;69.20
3942;DHT22;1985;48.592;8.850;2023-02-15T18:04:13;9.00;69.80
3942;DHT22;1985;48.592;8.850;2023-02-15T18:06:58;8.90;70.00
3942;DHT22;1985;48.592;8.850;2023-02-15T18:09:43;8.90;69.90
3942;DHT22;1985;48.592;8.850;2023-02-15T18:12:34;8.80;70.10
3942;DHT22;1985;48.592;8.850;2023-02-15T18:15:05;8.70;70.70
3942;DHT22;1985;48.592;8.850;2023-02-15T18:17:43;8.60;71.10
3942;DHT22;1985;48.592;8.850;2023-02-15T18:20:33;8.60;71.50
3942;DHT22;1985;48.592;8.850;2023-02-15T18:23:01;8.50;71.70
3942;DHT22;1985;48.592;8.850;2023-02-15T18:25:26;8.40;72.20
3942;DHT22;1985;48.592;8.850;2023-02-15T18:27:52;8.40;72.20
3942;DHT22;1985;48.592;8.850;2023-02-15T18:30:20;8.30;72.70
3942;DHT22;1985;48.592;8.850;2023-02-15T18:32:48;8.30;73.30
3942;DHT22;1985;48.592;8.850;2023-02-15T18:35:21;8.20;73.00
3942;DHT22;1985;48.592;8.850;2023-02-15T18:37:47;8.20;73.30
3942;DHT22;1985;48.592;8.850;2023-02-15T18:40:26;8.20;73.30
3942;DHT22;1985;48.592;8.850;2023-02-15T18:42:53;8.20;73.20
3942;DHT22;1985;48.592;8.850;2023-02-15T18:45:26;8.00;73.60
3942;DHT22;1985;48.592;8.850;2023-02-15T18:47:56;7.90;74.70
3942;DHT22;1985;48.592;8.850;2023-02-15T18:50:23;7.70;76.10
3942;DHT22;1985;48.592;8.850;2023-02-15T18:52:51;7.70;75.60
3942;DHT22;1985;48.592;8.850;2023-02-15T18:57:45;7.80;75.00
3942;DHT22;1985;48.592;8.850;2023-02-15T19:00:28;7.70;74.80
3942;DHT22;1985;48.592;8.850;2023-02-15T19:02:55;7.70;75.00
3942;DHT22;1985;48.592;8.850;2023-02-15T19:05:21;7.60;76.70
3942;DHT22;1985;48.592;8.850;2023-02-15T19:07:48;7.50;76.30
3942;DHT22;1985;48.592;8.850;2023-02-15T19:10:20;7.50;75.90
3942;DHT22;1985;48.592;8.850;2023-02-15T19:12:47;7.50;75.90
3942;DHT22;1985;48.592;8.850;2023-02-15T19:15:21;7.40;76.60
3942;DHT22;1985;48.592;8.850;2023-02-15T19:17:48;7.20;77.80
3942;DHT22;1985;48.592;8.850;2023-02-15T19:20:25;7.20;77.30
3942;DHT22;1985;48.592;8.850;2023-02-15T19:22:54;7.20;77.00
3942;DHT22;1985;48.592;8.850;2023-02-15T19:25:25;7.10;77.80
3942;DHT22;1985;48.592;8.850;2023-02-15T19:27:52;7.00;79.70
3942;DHT22;1985;48.592;8.850;2023-02-15T19:30:29;7.00;78.80
3942;DHT22;1985;48.592;8.850;2023-02-15T19:32:59;7.00;78.50
3942;DHT22;1985;48.592;8.850;2023-02-15T19:35:28;7.10;78.30
3942;DHT22;1985;48.592;8.850;2023-02-15T19:37:59;7.00;77.80
3942;DHT22;1985;48.592;8.850;2023-02-15T19:40:29;7.00;78.00
3942;DHT22;1985;48.592;8.850;2023-02-15T19:42:56;6.90;78.90
3942;DHT22;1985;48.592;8.850;2023-02-15T19:45:27;6.70;81.30
3942;DHT22;1985;48.592;8.850;2023-02-15T19:47:53;6.70;81.10
3942;DHT22;1985;48.592;8.850;2023-02-15T19:50:28;6.60;80.80
3942;DHT22;1985;48.592;8.850;2023-02-15T19:52:54;6.60;80.80
3942;DHT22;1985;48.592;8.850;2023-02-15T19:55:22;6.60;80.90
3942;DHT22;1985;48.592;8.850;2023-02-15T19:57:49;6.60;81.30
3942;DHT22;1985;48.592;8.850;2023-02-15T20:00:18;6.60;81.00
3942;DHT22;1985;48.592;8.850;2023-02-15T20:02:45;6.50;81.80
3942;DHT22;1985;48.592;8.850;2023-02-15T20:05:11;6.40;83.30
3942;DHT22;1985;48.592;8.850;2023-02-15T20:07:37;6.20;85.70